Flight Track Log - Related Links

Times and Time Zones

All times are in EDT time to prevent confusion due to time zone crossing. See the SLI2200 flight status page for this flight to view local times or setup timezone preferences in your user account.

Time Position Orientation Groundspeed Altitude Reporting Facility
EDT Latitude Longitude Course Direction KTS MPH feet Rate Location/Type
Wed 08:12:00 AM 28.5247 -105.5834 118° Southeast  Level Estimated
Wed 08:13:00 AM 28.4799 -105.4883 118° Southeast  Level Estimated
Wed 08:14:00 AM 28.4352 -105.3933 118° Southeast  Level Estimated
Wed 08:15:00 AM 28.3903 -105.2984 118° Southeast  Level Estimated
Wed 08:16:00 AM 28.3454 -105.2035 118° Southeast  Level Estimated
Wed 08:17:00 AM 28.3004 -105.1087 118° Southeast  Level Estimated
Wed 08:18:00 AM 28.2554 -105.0141 118° Southeast  Level Estimated
Wed 08:19:00 AM 28.2102 -104.9194 118° Southeast  Level Estimated
Wed 08:20:00 AM 28.1651 -104.8249 118° Southeast  Level Estimated
Wed 08:21:00 AM 28.1198 -104.7305 118° Southeast  Level Estimated
Wed 08:22:00 AM 28.0745 -104.6361 119° Southeast  Level Estimated
Wed 08:23:00 AM 28.0291 -104.5418 119° Southeast  Level Estimated
Wed 08:24:00 AM 27.9837 -104.4476 119° Southeast  Level Estimated
Wed 08:25:00 AM 27.9382 -104.3535 119° Southeast  Level Estimated
Wed 08:26:00 AM 27.8926 -104.2594 119° Southeast  Level Estimated
Wed 08:27:00 AM 27.8470 -104.1655 119° Southeast  Level Estimated
Wed 08:28:00 AM 27.8013 -104.0716 119° Southeast  Level Estimated
Wed 08:29:00 AM 27.7556 -103.9778 119° Southeast  Level Estimated
Wed 08:30:00 AM 27.7097 -103.8840 119° Southeast  Level Estimated
Wed 08:31:00 AM 27.6639 -103.7904 119° Southeast  Level Estimated
Wed 08:32:00 AM 27.6179 -103.6968 119° Southeast  Level Estimated
Wed 08:33:00 AM 27.5719 -103.6033 119° Southeast  Level Estimated
Wed 08:34:00 AM 27.5258 -103.5099 119° Southeast  Level Estimated
Wed 08:35:00 AM 27.4797 -103.4165 119° Southeast  Level Estimated
Wed 08:36:00 AM 27.4335 -103.3233 119° Southeast  Level Estimated
Wed 08:37:00 AM 27.3872 -103.2301 119° Southeast  Level Estimated
Wed 08:38:00 AM 27.3409 -103.1370 119° Southeast  Level Estimated
Wed 08:39:00 AM 27.2945 -103.0440 119° Southeast  Level Estimated
Wed 08:40:00 AM 27.2481 -102.9510 119° Southeast  Level Estimated
Wed 08:41:00 AM 27.2016 -102.8581 119° Southeast  Level Estimated
Wed 08:42:00 AM 27.1550 -102.7653 119° Southeast  Level Estimated
Wed 08:43:00 AM 27.1084 -102.6726 119° Southeast  Level Estimated
Wed 08:44:00 AM 27.0617 -102.5800 119° Southeast  Level Estimated
Wed 08:45:00 AM 27.0149 -102.4874 120° Southeast  Level Estimated
Wed 08:46:00 AM 26.9681 -102.3949 120° Southeast  Level Estimated
Wed 08:47:00 AM 26.9213 -102.3025 120° Southeast  Level Estimated
Wed 08:48:00 AM 26.8743 -102.2102 120° Southeast  Level Estimated
Wed 08:49:00 AM 26.8274 -102.1179 120° Southeast  Level Estimated
Wed 08:50:00 AM 26.7803 -102.0257 120° Southeast  Level Estimated
Wed 08:51:00 AM 26.7332 -101.9336 120° Southeast  Level Estimated
Wed 08:52:00 AM 26.6860 -101.8416 120° Southeast  Level Estimated
Wed 08:53:00 AM 26.6388 -101.7497 120° Southeast  Level Estimated
Wed 08:54:00 AM 26.5915 -101.6578 120° Southeast  Level Estimated
Wed 08:55:00 AM 26.5442 -101.5660 120° Southeast  Level Estimated
Wed 08:56:00 AM 26.4968 -101.4743 120° Southeast  Level Estimated
Wed 08:57:00 AM 26.4493 -101.3826 120° Southeast  Level Estimated
Wed 08:58:00 AM 26.4018 -101.2910 120° Southeast  Level Estimated
Wed 08:59:00 AM 26.3542 -101.1995 120° Southeast  Level Estimated
Wed 09:00:00 AM 26.3066 -101.1081 120° Southeast  Level Estimated
Wed 09:01:00 AM 26.2589 -101.0168 120° Southeast  Level Estimated
Wed 09:02:00 AM 26.2111 -100.9255 120° Southeast  Level Estimated
Wed 09:03:00 AM 26.1633 -100.8343 120° Southeast  Level Estimated
Wed 09:04:00 AM 26.1154 -100.7432 120° Southeast  Level Estimated
Wed 09:05:00 AM 26.0675 -100.6521 120° Southeast  Level Estimated
Wed 09:06:00 AM 26.0195 -100.5612 120° Southeast  Level Estimated
Wed 09:07:00 AM 25.9715 -100.4703 120° Southeast  Level Estimated
Wed 09:08:00 AM 25.9234 -100.3794 120° Southeast  Level Estimated
Wed 09:09:00 AM 25.8752 -100.2887 121° Southeast  Level Estimated
Wed 09:10:00 AM 25.8270 -100.1980 121° Southeast  Level Estimated
Wed 09:11:00 AM 25.7788 -100.1074 121° Southeast  Level Estimated
Wed 09:12:00 AM 25.7785 -100.1069 121° Southeast  Level Estimated
Wed 09:13:00 AM 25.7785 -100.1069 119° Southeast  Level Estimated
Wed 09:14:00 AM 25.7785 -100.1069 119° Southeast  Level Estimated
Wed 09:15:00 AM 25.7785 -100.1069 119° Southeast  Level Estimated
Wed 09:16:00 AM 25.7785 -100.1069 119° Southeast  Level Estimated
Wed 09:17:00 AM 25.7785 -100.1069 119° Southeast  Level Estimated
Wed 09:18:00 AM 25.7785 -100.1069 119° Southeast  Level Estimated
Wed 09:19:00 AM 25.7785 -100.1069 119° Southeast  Level Estimated
Wed 09:20:00 AM 25.7785 -100.1069 119° Southeast  Level Estimated
Wed 09:21:00 AM 25.7785 -100.1069 119° Southeast  Level Estimated
Wed 09:22:00 AM 25.7785 -100.1069 119° Southeast  Level Estimated
Wed 09:23:00 AM 25.7785 -100.1069 119° Southeast  Level Estimated
Wed 09:24:00 AM 25.7785 -100.1069 119° Southeast  Level Estimated
Wed 09:25:00 AM 25.7785 -100.1069 119° Southeast  Level Estimated
Wed 09:26:00 AM 25.7785 -100.1069 119° Southeast  Level Estimated
Wed 09:27:00 AM 25.7785 -100.1069 119° Southeast  Level Estimated

Login

Don't have an account? Register now (free) for customized features, flight alerts, and more!